createdAt,value
2023-04-16T00:02:40.410Z,100976.75
2023-04-16T00:07:43.368Z,100974.69
2023-04-16T00:12:46.264Z,100980.94
2023-04-16T00:17:49.266Z,100976.69
2023-04-16T00:22:52.531Z,100990.16
2023-04-16T00:27:55.444Z,100992.00
2023-04-16T00:32:58.438Z,100984.97
2023-04-16T00:38:01.445Z,100990.44
2023-04-16T00:43:04.636Z,100980.59
2023-04-16T00:48:28.371Z,100985.13
2023-04-16T00:53:31.899Z,100986.97
2023-04-16T00:58:35.984Z,100992.72
2023-04-16T01:03:41.452Z,100993.03
2023-04-16T01:08:45.168Z,101000.53
2023-04-16T01:13:48.095Z,100999.91
2023-04-16T01:18:51.218Z,100998.19
2023-04-16T01:23:54.627Z,100986.13
2023-04-16T01:28:57.603Z,100995.28
2023-04-16T01:34:00.615Z,100990.13
2023-04-16T01:39:04.570Z,100991.09
2023-04-16T01:44:07.488Z,100996.53
2023-04-16T01:49:10.872Z,100998.34
2023-04-16T01:54:14.036Z,101008.66
2023-04-16T01:59:16.851Z,101002.09
2023-04-16T02:04:19.778Z,101011.66
2023-04-16T02:09:22.720Z,101016.81
2023-04-16T02:14:26.096Z,101013.91
2023-04-16T02:19:29.251Z,101012.34
2023-04-16T02:24:32.488Z,101018.13
2023-04-16T02:29:38.890Z,101020.69
2023-04-16T02:34:48.836Z,101027.00
2023-04-16T02:39:53.485Z,101029.09
2023-04-16T02:44:56.508Z,101021.56
2023-04-16T02:49:59.424Z,101033.19
2023-04-16T02:55:02.417Z,101029.00
2023-04-16T03:00:07.083Z,101037.78
2023-04-16T03:05:11.965Z,101046.28
2023-04-16T03:10:14.863Z,101048.66
2023-04-16T03:15:17.979Z,101042.16
2023-04-16T03:20:21.259Z,101042.38
2023-04-16T03:25:24.536Z,101046.47
2023-04-16T03:30:27.940Z,101054.47
2023-04-16T03:35:31.067Z,101051.81
2023-04-16T03:40:33.996Z,101055.28
2023-04-16T03:45:37.467Z,101054.66
2023-04-16T03:50:40.669Z,101064.81
2023-04-16T03:55:46.430Z,101054.13
2023-04-16T04:00:49.463Z,101052.56
2023-04-16T04:05:53.683Z,101058.19
2023-04-16T04:11:03.802Z,101057.66
2023-04-16T04:16:08.282Z,101065.16
2023-04-16T04:21:11.758Z,101063.13
2023-04-16T04:26:15.323Z,101067.06
2023-04-16T04:31:18.495Z,101060.19
2023-04-16T04:36:21.667Z,101053.66
2023-04-16T04:41:27.247Z,101061.13
2023-04-16T04:46:30.286Z,101060.19
2023-04-16T04:51:33.875Z,101062.56
2023-04-16T04:56:37.550Z,101064.41
2023-04-16T05:01:40.947Z,101066.63
2023-04-16T05:06:44.349Z,101059.53
2023-04-16T05:11:47.250Z,101055.88
2023-04-16T05:16:50.199Z,101057.63
2023-04-16T05:21:53.266Z,101057.44
2023-04-16T05:26:57.586Z,101054.59
2023-04-16T05:32:00.736Z,101051.06
2023-04-16T05:37:03.704Z,101043.72
2023-04-16T05:42:06.599Z,101036.75
2023-04-16T05:47:09.719Z,101036.22
2023-04-16T05:52:12.782Z,101040.22
2023-04-16T05:57:15.667Z,101034.75
2023-04-16T06:02:18.815Z,101038.78
2023-04-16T06:07:21.833Z,101043.47
2023-04-16T06:12:24.894Z,101032.28
2023-04-16T06:17:27.919Z,101034.22
2023-04-16T06:22:30.956Z,101028.06
2023-04-16T06:27:34.248Z,101036.03
2023-04-16T06:32:37.100Z,101037.63
2023-04-16T06:37:40.009Z,101039.81
2023-04-16T06:42:44.881Z,101046.38
2023-04-16T06:47:48.708Z,101036.59
2023-04-16T06:52:51.627Z,101051.88
2023-04-16T06:57:54.595Z,101021.16
2023-04-16T07:02:58.750Z,101031.22
2023-04-16T07:08:01.627Z,101033.63
2023-04-16T07:13:04.546Z,101032.59
2023-04-16T07:18:07.500Z,101010.72
2023-04-16T07:23:10.567Z,101012.91
2023-04-16T07:28:16.764Z,101006.13
2023-04-16T07:33:19.680Z,101007.88
2023-04-16T07:38:22.584Z,101010.00
2023-04-16T07:43:25.418Z,100995.66
2023-04-16T07:48:28.515Z,100999.84
2023-04-16T07:53:31.514Z,100974.34
2023-04-16T07:58:34.608Z,100991.44
2023-04-16T08:03:37.861Z,100994.19
2023-04-16T08:08:41.037Z,100958.88
2023-04-16T08:13:44.007Z,100971.16
2023-04-16T08:18:46.824Z,100942.34
2023-04-16T08:23:49.714Z,100960.59
2023-04-16T08:28:53.011Z,100948.69
2023-04-16T08:33:55.938Z,100941.81
2023-04-16T08:38:58.879Z,100916.38
2023-04-16T08:44:25.982Z,100916.47
2023-04-16T08:49:29.052Z,100908.38
2023-04-16T08:54:56.570Z,100924.28
2023-04-16T09:00:19.674Z,100913.34
2023-04-16T09:05:25.967Z,100901.41
2023-04-16T09:10:28.983Z,100903.00
2023-04-16T09:15:35.212Z,100920.63
2023-04-16T09:20:39.347Z,100899.91
2023-04-16T09:25:42.522Z,100889.22
2023-04-16T09:30:45.837Z,100883.03
2023-04-16T09:35:50.778Z,100881.84
2023-04-16T09:41:07.926Z,100864.56
2023-04-16T09:46:13.151Z,100859.22
2023-04-16T09:51:38.346Z,100868.81
2023-04-16T09:56:46.376Z,100868.47
2023-04-16T10:01:50.821Z,100865.44
2023-04-16T10:07:05.201Z,100856.50
2023-04-16T10:12:08.900Z,100848.34
2023-04-16T10:17:12.071Z,100863.47
2023-04-16T10:22:15.616Z,100862.69
2023-04-16T10:27:19.666Z,100851.06
2023-04-16T10:32:42.703Z,100849.50
2023-04-16T10:37:45.717Z,100828.88
2023-04-16T10:42:56.385Z,100834.69
2023-04-16T10:47:59.509Z,100845.25
2023-04-16T10:53:23.347Z,100832.00
2023-04-16T10:58:36.420Z,100819.28
2023-04-16T11:03:49.471Z,100801.78
2023-04-16T11:08:54.889Z,100800.94
2023-04-16T11:13:58.441Z,100809.69
2023-04-16T11:19:01.650Z,100821.78
2023-04-16T11:24:04.661Z,100799.66
2023-04-16T11:29:16.043Z,100786.25
2023-04-16T11:34:20.322Z,100783.16
2023-04-16T11:39:23.913Z,100774.53
2023-04-16T11:44:28.208Z,100767.56
2023-04-16T11:49:31.326Z,100755.78
2023-04-16T11:54:36.673Z,100759.34
2023-04-16T12:00:01.337Z,100751.31
2023-04-16T12:05:35.167Z,100764.13
2023-04-16T12:11:07.577Z,100742.06
2023-04-16T12:16:19.670Z,100755.44
2023-04-16T12:21:22.673Z,100736.91
2023-04-16T12:26:25.680Z,100738.06
2023-04-16T12:31:38.450Z,100731.16
2023-04-16T12:36:43.173Z,100773.16
2023-04-16T12:41:46.164Z,100714.16
2023-04-16T12:46:49.150Z,100724.97
2023-04-16T12:51:53.092Z,100734.75
2023-04-16T12:56:55.958Z,100726.63
2023-04-16T13:02:01.158Z,100709.66
2023-04-16T13:07:04.160Z,100696.88
2023-04-16T13:12:07.502Z,100709.41
2023-04-16T13:17:10.418Z,100684.78
2023-04-16T13:22:13.559Z,100691.88
2023-04-16T13:27:17.113Z,100693.97
2023-04-16T13:32:20.142Z,100676.53
2023-04-16T13:37:23.485Z,100667.91
2023-04-16T13:42:26.553Z,100656.41
2023-04-16T13:47:29.663Z,100651.94
2023-04-16T13:52:32.521Z,100660.91
2023-04-16T13:57:35.431Z,100678.53
2023-04-16T14:02:42.392Z,100667.19
2023-04-16T14:07:46.518Z,100697.19
2023-04-16T14:12:49.613Z,100673.69
2023-04-16T14:17:52.716Z,100667.47
2023-04-16T14:22:55.710Z,100661.00
2023-04-16T14:28:01.714Z,100657.66
2023-04-16T14:33:06.864Z,100661.03
2023-04-16T14:38:10.093Z,100668.50
2023-04-16T14:43:13.085Z,100667.50
2023-04-16T14:48:16.176Z,100668.84
2023-04-16T14:53:19.219Z,100657.69
2023-04-16T14:58:22.132Z,100656.63
2023-04-16T15:03:25.354Z,100667.53
2023-04-16T15:08:28.346Z,100665.41
2023-04-16T15:13:34.205Z,100657.94
2023-04-16T15:18:37.314Z,100659.66
2023-04-16T15:23:40.144Z,100663.13
2023-04-16T15:28:42.927Z,100665.91
2023-04-16T15:33:45.911Z,100661.47
2023-04-16T15:38:49.005Z,100668.59
2023-04-16T15:43:51.949Z,100664.47
2023-04-16T15:48:54.873Z,100661.50
2023-04-16T15:53:58.688Z,100670.97
2023-04-16T15:59:01.664Z,100664.13
2023-04-16T16:04:04.805Z,100673.06
2023-04-16T16:09:08.524Z,100676.94
2023-04-16T16:14:11.704Z,100678.91
2023-04-16T16:19:14.942Z,100681.22
2023-04-16T16:24:18.575Z,100688.53
2023-04-16T16:29:21.643Z,100690.06
2023-04-16T16:34:24.488Z,100691.97
2023-04-16T16:39:27.777Z,100688.50
2023-04-16T16:44:31.262Z,100691.16
2023-04-16T16:49:34.033Z,100699.59
2023-04-16T16:54:36.812Z,100699.16
2023-04-16T16:59:39.833Z,100700.25
2023-04-16T17:04:42.996Z,100698.22
2023-04-16T17:10:06.933Z,100699.69
2023-04-16T17:15:10.405Z,100703.09
2023-04-16T17:20:13.323Z,100696.13
2023-04-16T17:25:16.278Z,100696.06
2023-04-16T17:30:19.446Z,100706.75
2023-04-16T17:35:22.280Z,100704.75
2023-04-16T17:40:25.653Z,100711.56
2023-04-16T17:45:28.620Z,100701.50
2023-04-16T17:50:31.483Z,100723.38
2023-04-16T17:55:34.509Z,100716.00
2023-04-16T18:00:37.861Z,100711.28
2023-04-16T18:05:43.941Z,100715.81
2023-04-16T18:10:46.878Z,100717.66
2023-04-16T18:15:50.031Z,100715.63
2023-04-16T18:20:52.914Z,100719.00
2023-04-16T18:25:55.944Z,100713.13
2023-04-16T18:31:04.979Z,100717.19
2023-04-16T18:36:08.455Z,100717.47
2023-04-16T18:41:18.932Z,100718.84
2023-04-16T18:46:22.121Z,100714.84
2023-04-16T18:51:25.395Z,100716.66
2023-04-16T18:56:46.715Z,100713.06
2023-04-16T19:01:50.016Z,100711.78
2023-04-16T19:06:53.032Z,100710.91
2023-04-16T19:11:56.252Z,100717.38
2023-04-16T19:16:59.267Z,100723.81
2023-04-16T19:22:02.191Z,100719.91
2023-04-16T19:27:05.033Z,100724.78
2023-04-16T19:32:08.136Z,100729.75
2023-04-16T19:37:11.470Z,100722.00
2023-04-16T19:42:14.649Z,100731.44
2023-04-16T19:47:17.810Z,100738.22
2023-04-16T19:52:20.845Z,100738.59
2023-04-16T19:57:23.750Z,100747.03
2023-04-16T20:02:27.223Z,100740.84
2023-04-16T20:07:30.988Z,100753.78
2023-04-16T20:12:33.977Z,100756.00
2023-04-16T20:17:36.992Z,100760.34
2023-04-16T20:22:40.643Z,100763.38
2023-04-16T20:27:43.591Z,100764.94
2023-04-16T20:32:46.607Z,100766.97
2023-04-16T20:37:49.605Z,100773.00
2023-04-16T20:42:52.480Z,100769.03
2023-04-16T20:47:55.928Z,100766.22
2023-04-16T20:52:59.099Z,100776.63
2023-04-16T20:58:01.963Z,100774.06
2023-04-16T21:03:05.685Z,100786.63
2023-04-16T21:08:08.693Z,100790.63
2023-04-16T21:13:11.747Z,100792.34
2023-04-16T21:18:14.942Z,100791.41
2023-04-16T21:23:17.800Z,100797.88
2023-04-16T21:28:20.695Z,100799.59
2023-04-16T21:33:23.682Z,100801.25
2023-04-16T21:38:26.677Z,100802.94
2023-04-16T21:43:32.241Z,100803.38
2023-04-16T21:48:35.295Z,100801.66
2023-04-16T21:53:39.218Z,100801.13
2023-04-16T21:58:42.120Z,100802.06
2023-04-16T22:03:47.291Z,100804.31
2023-04-16T22:08:50.370Z,100799.66
2023-04-16T22:13:53.798Z,100807.91
2023-04-16T22:19:15.084Z,100799.59
2023-04-16T22:24:18.068Z,100801.13
2023-04-16T22:29:21.034Z,100800.25
2023-04-16T22:34:23.975Z,100805.97
2023-04-16T22:39:28.764Z,100811.66
2023-04-16T22:44:31.556Z,100810.97
2023-04-16T22:49:34.471Z,100822.69
2023-04-16T22:54:37.770Z,100819.38
2023-04-16T22:59:40.862Z,100817.72
2023-04-16T23:05:02.453Z,100828.31
2023-04-16T23:10:08.822Z,100823.03
2023-04-16T23:15:12.034Z,100830.47
2023-04-16T23:20:15.361Z,100843.88
2023-04-16T23:25:18.605Z,100841.88
2023-04-16T23:30:21.555Z,100838.78
2023-04-16T23:35:24.483Z,100839.69
2023-04-16T23:40:27.452Z,100841.91
2023-04-16T23:45:30.571Z,100847.47
2023-04-16T23:50:33.461Z,100851.47
2023-04-16T23:55:36.342Z,100858.38
